Time;durP1;ratioP1;P1;durP2;ratioP2;P2;SDS_P1;SDS_P2;PMS_P1;PMS_P2;Temp;Humidity;BMP_temperature;BMP_pressure;BME280_temperature;BME280_humidity;BME280_pressure;Samples;Min_cycle;Max_cycle;Signal;HPM_P1;HPM_P2
2021/08/11 00:04:32;;;;;;;27.23;16.17;;;;;14.90;101336.00;;;;9891892;29;20264;-76
2021/08/11 00:09:33;;;;;;;23.03;14.83;;;;;14.80;101323.00;;;;9891584;29;20238;-76
2021/08/11 00:14:35;;;;;;;24.87;16.00;;;;;14.70;101324.00;;;;9905451;29;20195;-76
2021/08/11 00:19:38;;;;;;;26.97;14.40;;;;;14.70;101328.00;;;;9866536;29;20208;-76
2021/08/11 00:24:40;;;;;;;22.90;14.97;;;;;14.70;101327.00;;;;9855780;29;20389;-76
2021/08/11 00:29:41;;;;;;;18.80;13.10;;;;;14.60;101327.00;;;;9866099;29;20227;-76
2021/08/11 00:34:44;;;;;;;25.27;14.07;;;;;14.50;101326.00;;;;9875871;29;20203;-76
2021/08/11 00:39:46;;;;;;;21.57;13.23;;;;;14.40;101328.00;;;;9891321;29;20191;-76
2021/08/11 00:44:48;;;;;;;23.53;14.03;;;;;14.40;101338.00;;;;9861575;29;20302;-76
2021/08/11 00:49:51;;;;;;;25.33;14.30;;;;;14.30;101333.00;;;;9890110;29;20232;-76
2021/08/11 00:54:54;;;;;;;23.93;13.30;;;;;14.30;101331.00;;;;9875498;29;21145;-76
2021/08/11 00:59:59;;;;;;;24.97;14.23;;;;;14.30;101340.00;;;;9890483;29;20257;-76
2021/08/11 01:05:06;;;;;;;21.87;13.10;;;;;14.30;101338.00;;;;9890979;29;20229;-76
2021/08/11 01:10:10;;;;;;;22.10;13.37;;;;;14.30;101339.00;;;;9889955;29;20692;-76
2021/08/11 01:15:15;;;;;;;27.33;15.73;;;;;14.30;101338.00;;;;9904413;29;20200;-77
2021/08/11 01:20:22;;;;;;;25.07;14.50;;;;;14.30;101340.00;;;;9905089;29;20262;-77
2021/08/11 01:25:33;;;;;;;20.80;13.70;;;;;14.20;101327.00;;;;9857595;30;20663;-76
2021/08/11 01:30:53;;;;;;;26.43;14.30;;;;;14.20;101328.00;;;;9860830;30;20231;-77
2021/08/11 01:36:04;;;;;;;32.50;14.60;;;;;14.30;101334.00;;;;9889908;29;20223;-76
2021/08/11 01:41:07;;;;;;;32.17;17.47;;;;;14.50;101338.00;;;;9860081;30;20255;-76
2021/08/11 01:46:12;;;;;;;46.53;19.33;;;;;14.60;101330.00;;;;9859488;30;20869;-77
2021/08/11 01:51:15;;;;;;;56.50;23.00;;;;;14.80;101334.00;;;;9844793;30;20225;-77
2021/08/11 01:56:18;;;;;;;71.37;25.93;;;;;14.90;101331.00;;;;9893379;29;20215;-77
2021/08/11 02:01:24;;;;;;;150.93;31.10;;;;;15.10;101330.00;;;;9881234;29;20224;-76
2021/08/11 02:06:28;;;;;;;155.53;32.27;;;;;15.20;101321.00;;;;9881270;29;20302;-77
2021/08/11 02:11:40;;;;;;;210.33;33.70;;;;;15.20;101312.00;;;;9910305;29;20270;-77
2021/08/11 02:16:43;;;;;;;277.93;36.97;;;;;15.30;101322.00;;;;9896541;29;20214;-76
2021/08/11 02:21:45;;;;;;;223.90;32.50;;;;;15.30;101317.00;;;;9866904;29;20196;-76
2021/08/11 02:26:58;;;;;;;127.00;27.10;;;;;15.30;101328.00;;;;9878430;30;20227;-77
2021/08/11 02:32:25;;;;;;;240.23;33.93;;;;;15.30;101331.00;;;;9859662;30;20255;-75
2021/08/11 02:37:38;;;;;;;196.10;32.57;;;;;15.30;101334.00;;;;9858433;30;20693;-76
2021/08/11 02:42:45;;;;;;;130.77;28.73;;;;;15.30;101333.00;;;;9893860;29;20310;-77
2021/08/11 02:47:48;;;;;;;92.07;26.80;;;;;15.30;101338.00;;;;9909856;29;20567;-77
2021/08/11 02:52:52;;;;;;;141.23;30.97;;;;;15.30;101336.00;;;;9880619;29;20227;-76
2021/08/11 02:57:56;;;;;;;135.83;29.73;;;;;15.30;101338.00;;;;9909522;29;20292;-76
2021/08/11 03:02:59;;;;;;;171.90;33.87;;;;;15.20;101345.00;;;;9895775;29;20572;-76
2021/08/11 03:08:02;;;;;;;172.67;32.70;;;;;15.20;101345.00;;;;9911220;29;20227;-76
2021/08/11 03:13:04;;;;;;;157.30;33.63;;;;;15.20;101343.00;;;;9881243;29;20711;-76
2021/08/11 03:18:08;;;;;;;194.40;38.17;;;;;15.10;101341.00;;;;9865632;29;20213;-76
2021/08/11 03:23:13;;;;;;;179.20;37.03;;;;;15.00;101348.00;;;;9914004;29;20695;-76
2021/08/11 03:28:16;;;;;;;244.53;38.43;;;;;15.00;101338.00;;;;9932416;29;20203;-77
2021/08/11 03:33:34;;;;;;;256.23;36.47;;;;;14.90;101331.00;;;;9947671;29;20230;-77
2021/08/11 03:38:36;;;;;;;404.27;43.87;;;;;14.80;101339.00;;;;9947762;29;20221;-76
2021/08/11 03:43:38;;;;;;;166.33;32.23;;;;;14.70;101349.00;;;;9916825;29;20211;-77
2021/08/11 03:48:41;;;;;;;75.47;27.83;;;;;14.50;101341.00;;;;9916864;29;20263;-77
2021/08/11 03:53:43;;;;;;;64.03;26.50;;;;;14.30;101345.00;;;;9904399;29;20266;-77
2021/08/11 03:58:47;;;;;;;53.40;24.90;;;;;14.20;101339.00;;;;9908968;29;20220;-77
2021/08/11 04:03:49;;;;;;;56.23;23.87;;;;;14.10;101340.00;;;;9909135;29;20265;-77
2021/08/11 04:08:51;;;;;;;57.10;24.57;;;;;14.00;101345.00;;;;9893743;29;20630;-77
2021/08/11 04:13:53;;;;;;;50.87;22.63;;;;;13.90;101361.00;;;;9894327;29;20259;-77
2021/08/11 04:18:54;;;;;;;44.20;21.97;;;;;13.70;101361.00;;;;9908877;29;20207;-76
2021/08/11 04:23:56;;;;;;;45.90;23.00;;;;;13.70;101361.00;;;;9903389;29;20215;-77
2021/08/11 04:28:58;;;;;;;59.20;24.20;;;;;13.60;101371.00;;;;9945615;29;20290;-77
2021/08/11 04:34:00;;;;;;;62.97;25.23;;;;;13.60;101369.00;;;;9929900;29;20312;-77
2021/08/11 04:39:02;;;;;;;63.60;25.67;;;;;13.60;101374.00;;;;9930555;29;20233;-77
2021/08/11 04:44:23;;;;;;;61.70;24.80;;;;;13.60;101372.00;;;;9908325;29;20238;-77
2021/08/11 04:49:25;;;;;;;58.87;25.80;;;;;13.60;101372.00;;;;9907649;29;20207;-76
2021/08/11 04:54:27;;;;;;;63.83;25.90;;;;;13.60;101378.00;;;;9907458;29;20212;-76
2021/08/11 04:59:29;;;;;;;64.43;24.60;;;;;13.60;101374.00;;;;9891382;29;20235;-77
2021/08/11 05:04:30;;;;;;;65.07;25.40;;;;;13.70;101370.00;;;;9845426;30;20216;-76
2021/08/11 05:09:33;;;;;;;50.00;23.33;;;;;13.70;101379.00;;;;9855127;30;20240;-77
2021/08/11 05:14:35;;;;;;;49.33;23.00;;;;;13.80;101377.00;;;;9855290;30;20240;-76
2021/08/11 05:19:37;;;;;;;52.47;23.00;;;;;13.80;101387.00;;;;9840703;30;20204;-76
2021/08/11 05:24:38;;;;;;;62.90;21.83;;;;;13.80;101388.00;;;;9865792;29;20215;-76
2021/08/11 05:29:42;;;;;;;51.57;22.93;;;;;13.80;101406.00;;;;9877121;29;20195;-76
2021/08/11 05:34:44;;;;;;;49.67;21.80;;;;;14.20;101400.00;;;;9908428;29;20993;-76
2021/08/11 05:39:46;;;;;;;47.23;21.13;;;;;14.50;101409.00;;;;9893057;29;20207;-77
2021/08/11 05:44:50;;;;;;;52.77;22.70;;;;;14.90;101412.00;;;;9863518;29;20674;-77
2021/08/11 05:49:52;;;;;;;51.33;22.30;;;;;15.30;101415.00;;;;9870088;30;20734;-77
2021/08/11 05:54:54;;;;;;;37.77;20.13;;;;;15.70;101434.00;;;;9907634;29;20315;-76
2021/08/11 05:59:56;;;;;;;44.13;20.50;;;;;16.20;101440.00;;;;9929068;29;20246;-78
2021/08/11 06:04:57;;;;;;;34.38;20.25;;;;;16.90;101489.00;;;;9903846;29;20631;-77
2021/08/11 06:09:59;;;;;;;29.63;19.25;;;;;17.70;101518.00;;;;9841020;30;20224;-77
2021/08/11 06:15:01;;;;;;;21.23;14.15;;;;;18.00;101524.00;;;;9837922;30;20244;-76
2021/08/11 06:20:03;;;;;;;14.88;11.60;;;;;18.20;101510.00;;;;9901382;29;20225;-77
2021/08/11 06:25:06;;;;;;;18.15;11.65;;;;;18.40;101512.00;;;;9867307;29;20200;-77
2021/08/11 06:30:09;;;;;;;16.83;10.07;;;;;18.40;101511.00;;;;9866848;29;20595;-77
2021/08/11 06:35:12;;;;;;;20.23;10.98;;;;;18.40;101505.00;;;;9911140;29;20216;-77
2021/08/11 06:40:15;;;;;;;15.07;10.38;;;;;18.80;101477.00;;;;9881445;29;20211;-77
2021/08/11 06:45:18;;;;;;;13.20;7.70;;;;;19.10;101461.00;;;;9896013;29;20231;-77
2021/08/11 06:50:21;;;;;;;9.70;7.90;;;;;18.80;101473.00;;;;9880437;29;20306;-77
2021/08/11 06:55:23;;;;;;;11.82;8.38;;;;;19.20;101457.00;;;;9893773;29;20219;-77
2021/08/11 07:00:25;;;;;;;9.55;7.10;;;;;19.60;101437.00;;;;9872739;30;20231;-77
2021/08/11 07:05:27;;;;;;;10.88;7.43;;;;;19.90;101428.00;;;;9858339;30;20208;-77
2021/08/11 07:10:29;;;;;;;12.90;6.90;;;;;20.00;101439.00;;;;9886773;29;20309;-77
2021/08/11 07:15:32;;;;;;;6.63;4.60;;;;;20.10;101436.00;;;;9881246;29;20212;-77
2021/08/11 07:20:34;;;;;;;8.68;4.60;;;;;19.90;101440.00;;;;9895639;29;20261;-77
2021/08/11 07:25:36;;;;;;;11.27;5.10;;;;;20.10;101437.00;;;;9881546;29;20980;-77
2021/08/11 07:30:41;;;;;;;5.53;3.88;;;;;20.80;101430.00;;;;9893600;29;20223;-77
2021/08/11 07:35:43;;;;;;;8.43;4.28;;;;;20.90;101442.00;;;;9896601;29;20239;-78
2021/08/11 07:40:45;;;;;;;6.75;3.65;;;;;21.20;101433.00;;;;9893663;29;20254;-77
2021/08/11 07:45:48;;;;;;;7.07;3.92;;;;;21.50;101416.00;;;;9893355;29;20317;-77
2021/08/11 07:51:08;;;;;;;8.13;4.03;;;;;21.80;101416.00;;;;9892802;29;20223;-77
2021/08/11 07:56:10;;;;;;;5.47;3.47;;;;;21.90;101409.00;;;;9908873;29;20208;-77
2021/08/11 08:01:12;;;;;;;5.28;3.67;;;;;22.20;101416.00;;;;9884708;29;20220;-77
2021/08/11 08:06:14;;;;;;;5.15;3.33;;;;;22.50;101428.00;;;;9855900;30;20644;-77
2021/08/11 08:11:16;;;;;;;3.53;2.40;;;;;22.70;101430.00;;;;9899643;29;20223;-77
2021/08/11 08:16:18;;;;;;;4.43;3.05;;;;;23.00;101434.00;;;;9878438;29;20561;-76
2021/08/11 08:21:21;;;;;;;5.60;2.65;;;;;23.40;101429.00;;;;9878417;29;20224;-76
2021/08/11 08:26:22;;;;;;;5.70;2.67;;;;;23.60;101449.00;;;;9892987;29;20610;-77
2021/08/11 08:31:25;;;;;;;5.85;2.53;;;;;23.90;101469.00;;;;9906965;29;20243;-77
2021/08/11 08:36:27;;;;;;;6.15;2.70;;;;;24.20;101491.00;;;;9891188;29;20235;-76
2021/08/11 08:41:29;;;;;;;5.07;2.75;;;;;24.70;101507.00;;;;9864138;29;20215;-76
2021/08/11 08:46:32;;;;;;;3.22;2.45;;;;;25.10;101526.00;;;;9909039;29;20253;-77
2021/08/11 08:51:40;;;;;;;3.42;2.33;;;;;25.20;101519.00;;;;9877434;29;20261;-76
2021/08/11 08:56:42;;;;;;;2.72;2.35;;;;;25.30;101523.00;;;;9877427;29;20200;-76
2021/08/11 09:01:43;;;;;;;6.90;3.00;;;;;25.50;101520.00;;;;9891596;29;20215;-76
2021/08/11 09:06:46;;;;;;;6.00;2.90;;;;;25.80;101520.00;;;;9893213;29;20289;-77
2021/08/11 09:12:07;;;;;;;4.40;2.50;;;;;26.20;101525.00;;;;9869870;29;20228;-76
2021/08/11 09:17:09;;;;;;;4.60;2.60;;;;;26.30;101522.00;;;;9875678;30;20294;-77
2021/08/11 09:22:14;;;;;;;5.68;3.13;;;;;26.80;101505.00;;;;9856299;29;20212;-77
2021/08/11 09:27:24;;;;;;;3.58;2.80;;;;;26.80;101516.00;;;;9867352;29;20576;-77
2021/08/11 09:32:26;;;;;;;3.45;2.67;;;;;26.70;101520.00;;;;9907610;29;20234;-77
2021/08/11 09:37:45;;;;;;;4.03;2.40;;;;;27.00;101534.00;;;;9892119;29;20292;-77
2021/08/11 09:42:48;;;;;;;3.05;2.47;;;;;26.50;101540.00;;;;9908845;29;20218;-77
2021/08/11 09:47:55;;;;;;;5.63;2.47;;;;;26.70;101538.00;;;;9897592;29;20211;-77
2021/08/11 09:52:57;;;;;;;2.67;2.47;;;;;27.30;101546.00;;;;9878741;30;20757;-77
2021/08/11 09:57:59;;;;;;;4.70;2.67;;;;;27.80;101537.00;;;;9897772;29;20211;-77
2021/08/11 10:03:03;;;;;;;5.63;2.60;;;;;27.40;101546.00;;;;9897848;29;20284;-77
2021/08/11 10:08:06;;;;;;;4.53;3.20;;;;;27.00;101534.00;;;;9911392;29;20656;-76
2021/08/11 10:13:08;;;;;;;4.32;2.28;;;;;27.20;101533.00;;;;9907612;29;20676;-77
2021/08/11 10:18:11;;;;;;;4.15;2.63;;;;;27.40;101535.00;;;;9862359;29;20209;-77
2021/08/11 10:23:19;;;;;;;3.03;2.35;;;;;27.50;101533.00;;;;9830185;30;20797;-76
2021/08/11 10:28:24;;;;;;;3.17;2.70;;;;;27.30;101544.00;;;;9868398;29;20561;-77
2021/08/11 10:33:27;;;;;;;3.95;2.80;;;;;27.80;101536.00;;;;9923581;29;20291;-77
2021/08/11 10:38:30;;;;;;;4.15;2.72;;;;;27.70;101545.00;;;;9942048;29;20228;-77
2021/08/11 10:43:34;;;;;;;4.50;2.80;;;;;28.30;101537.00;;;;9894524;29;20687;-77
2021/08/11 10:48:36;;;;;;;4.18;2.78;;;;;28.40;101543.00;;;;9896666;29;20265;-77
2021/08/11 10:53:38;;;;;;;4.53;3.10;;;;;29.30;101535.00;;;;9910284;29;20757;-77
2021/08/11 10:58:43;;;;;;;15.82;3.28;;;;;29.30;101539.00;;;;9878604;29;20675;-77
2021/08/11 11:03:50;;;;;;;4.97;2.70;;;;;28.30;101534.00;;;;9879310;29;20241;-77
2021/08/11 11:09:22;;;;;;;4.80;2.90;;;;;27.70;101535.00;;;;9857060;30;20231;-77
2021/08/11 11:14:43;;;;;;;4.95;2.83;;;;;28.10;101532.00;;;;9872071;30;20267;-77
2021/08/11 11:20:09;;;;;;;3.60;3.08;;;;;28.40;101530.00;;;;9857756;30;20254;-76
2021/08/11 11:25:15;;;;;;;4.03;2.78;;;;;28.50;101538.00;;;;9891209;29;20696;-77
2021/08/11 11:30:25;;;;;;;5.15;2.65;;;;;29.20;101542.00;;;;9872790;30;20223;-77
2021/08/11 11:35:28;;;;;;;5.28;2.90;;;;;29.00;101531.00;;;;9879568;29;20223;-77
2021/08/11 11:40:31;;;;;;;3.03;2.05;;;;;28.70;101528.00;;;;9892318;29;20208;-76
2021/08/11 11:45:45;;;;;;;4.05;3.05;;;;;27.70;101531.00;;;;9892443;29;20268;-77
2021/08/11 11:50:52;;;;;;;3.55;3.22;;;;;27.60;101532.00;;;;9886304;29;20237;-77
2021/08/11 11:55:54;;;;;;;4.28;3.38;;;;;27.50;101529.00;;;;9889079;29;20211;-77
2021/08/11 12:01:04;;;;;;;7.75;3.10;;;;;28.00;101522.00;;;;9893917;29;20218;-77
2021/08/11 12:06:08;;;;;;;4.72;3.40;;;;;27.80;101514.00;;;;9896220;29;20243;-76
2021/08/11 12:11:13;;;;;;;5.38;3.60;;;;;27.70;101506.00;;;;9883173;29;20596;-77
2021/08/11 12:16:17;;;;;;;6.60;3.38;;;;;28.30;101497.00;;;;9875038;29;20207;-77
2021/08/11 12:21:20;;;;;;;5.30;3.38;;;;;28.40;101503.00;;;;9910851;29;20736;-77
2021/08/11 12:26:29;;;;;;;4.95;3.15;;;;;27.90;101497.00;;;;9926977;29;20211;-77
2021/08/11 12:31:33;;;;;;;7.47;3.20;;;;;28.50;101487.00;;;;9870676;29;20239;-76
2021/08/11 12:36:38;;;;;;;6.82;3.10;;;;;28.70;101492.00;;;;9867937;30;20232;-77
2021/08/11 12:41:42;;;;;;;5.78;2.85;;;;;29.00;101494.00;;;;9853916;29;20618;-76
2021/08/11 12:46:44;;;;;;;6.38;3.17;;;;;29.10;101493.00;;;;9904732;29;20208;-77
2021/08/11 12:51:48;;;;;;;4.20;3.15;;;;;29.10;101483.00;;;;9874631;29;20231;-77
2021/08/11 12:56:59;;;;;;;3.30;2.80;;;;;29.40;101493.00;;;;9867852;29;20215;-77
2021/08/11 13:02:18;;;;;;;4.22;2.88;;;;;28.90;101495.00;;;;9880957;29;20219;-77
2021/08/11 13:07:20;;;;;;;4.00;2.85;;;;;28.10;101483.00;;;;9890021;29;20226;-76
2021/08/11 13:12:29;;;;;;;7.70;2.85;;;;;28.20;101484.00;;;;9926400;29;20694;-77
2021/08/11 13:17:32;;;;;;;5.45;3.05;;;;;28.80;101484.00;;;;9925496;29;20227;-76
2021/08/11 13:22:34;;;;;;;4.93;3.42;;;;;29.30;101477.00;;;;9932076;29;20191;-77
2021/08/11 13:27:36;;;;;;;7.28;3.28;;;;;29.40;101480.00;;;;9901650;29;20746;-77
2021/08/11 13:32:39;;;;;;;8.40;3.40;;;;;29.30;101479.00;;;;9881078;29;20223;-77
2021/08/11 13:37:41;;;;;;;4.15;3.20;;;;;29.00;101464.00;;;;9895981;29;20242;-77
2021/08/11 13:42:43;;;;;;;3.30;2.90;;;;;28.60;101470.00;;;;9909283;29;20225;-77
2021/08/11 13:47:45;;;;;;;5.47;3.20;;;;;28.70;101450.00;;;;9899733;29;20215;-77
2021/08/11 13:52:48;;;;;;;8.25;3.13;;;;;29.50;101455.00;;;;9909321;29;20255;-77
2021/08/11 13:57:50;;;;;;;3.85;3.10;;;;;29.20;101450.00;;;;9924527;29;20199;-77
2021/08/11 14:02:52;;;;;;;4.30;3.15;;;;;28.70;101444.00;;;;9893893;29;20297;-76
2021/08/11 14:07:55;;;;;;;4.72;3.05;;;;;28.50;101444.00;;;;9894753;29;20747;-77
2021/08/11 14:12:57;;;;;;;3.85;3.42;;;;;28.90;101437.00;;;;9880140;29;20587;-77
2021/08/11 14:18:00;;;;;;;4.05;3.25;;;;;29.60;101437.00;;;;9907402;29;20625;-76
2021/08/11 14:23:03;;;;;;;5.60;3.10;;;;;30.70;101427.00;;;;9923181;29;20211;-77
2021/08/11 14:28:05;;;;;;;5.35;3.20;;;;;32.30;101423.00;;;;9908235;29;20192;-77
2021/08/11 14:33:07;;;;;;;6.20;3.22;;;;;33.50;101428.00;;;;9892258;29;20468;-76
2021/08/11 14:38:08;;;;;;;5.93;3.47;;;;;33.80;101427.00;;;;9909103;29;20220;-76
2021/08/11 14:43:10;;;;;;;3.47;3.10;;;;;35.20;101427.00;;;;9892785;29;20223;-76
2021/08/11 14:48:12;;;;;;;7.28;3.50;;;;;35.40;101429.00;;;;9877778;29;20211;-77
2021/08/11 14:53:14;;;;;;;4.50;3.25;;;;;34.40;101432.00;;;;9877985;29;20239;-76
2021/08/11 14:58:17;;;;;;;6.68;2.80;;;;;33.50;101435.00;;;;9906968;29;20261;-76
2021/08/11 15:03:19;;;;;;;4.22;2.95;;;;;34.80;101436.00;;;;9908284;29;20196;-76
2021/08/11 15:08:21;;;;;;;6.15;3.17;;;;;36.10;101435.00;;;;9891436;29;20952;-77
2021/08/11 15:13:23;;;;;;;5.30;2.78;;;;;37.00;101430.00;;;;9862643;29;20580;-77
2021/08/11 15:18:26;;;;;;;5.35;2.88;;;;;36.90;101426.00;;;;9906206;29;20250;-77
2021/08/11 15:23:27;;;;;;;4.45;3.20;;;;;31.60;101435.00;;;;9890612;29;20199;-77
2021/08/11 15:28:30;;;;;;;4.07;3.28;;;;;29.00;101432.00;;;;9906908;29;20203;-79
2021/08/11 15:33:31;;;;;;;3.47;2.88;;;;;28.20;101422.00;;;;9891001;29;20241;-77
2021/08/11 15:38:34;;;;;;;6.20;3.42;;;;;27.80;101426.00;;;;9875930;29;20231;-76
2021/08/11 15:43:36;;;;;;;4.55;3.25;;;;;26.30;101434.00;;;;9888367;29;20572;-77
2021/08/11 15:48:39;;;;;;;6.53;3.40;;;;;26.90;101429.00;;;;9902899;29;20203;-76
2021/08/11 15:53:41;;;;;;;3.65;3.00;;;;;27.00;101414.00;;;;9874389;29;20231;-77
2021/08/11 15:58:43;;;;;;;6.20;3.22;;;;;25.70;101423.00;;;;9874288;29;20609;-76
2021/08/11 16:03:45;;;;;;;6.38;3.30;;;;;25.70;101415.00;;;;9904311;29;20203;-76
2021/08/11 16:08:47;;;;;;;8.60;3.30;;;;;24.90;101422.00;;;;9888234;29;20829;-76
2021/08/11 16:13:49;;;;;;;4.95;3.22;;;;;24.50;101417.00;;;;9873092;29;20232;-76
2021/08/11 16:18:51;;;;;;;4.15;2.53;;;;;24.20;101423.00;;;;9902751;29;20231;-76
2021/08/11 16:23:53;;;;;;;6.78;3.20;;;;;24.00;101413.00;;;;9892918;29;20655;-76
2021/08/11 16:28:55;;;;;;;4.28;3.22;;;;;23.60;101422.00;;;;9887505;29;20216;-76
2021/08/11 16:33:57;;;;;;;4.13;2.67;;;;;23.40;101427.00;;;;9903148;29;20223;-75
2021/08/11 16:39:01;;;;;;;4.28;3.13;;;;;23.40;101424.00;;;;9887482;29;20238;-76
2021/08/11 16:44:03;;;;;;;3.90;3.00;;;;;23.30;101415.00;;;;9886627;29;20281;-76
2021/08/11 16:49:05;;;;;;;5.78;3.03;;;;;23.10;101418.00;;;;9886697;29;20211;-76
2021/08/11 16:54:07;;;;;;;4.90;3.10;;;;;23.00;101405.00;;;;9891836;29;20228;-76
2021/08/11 16:59:09;;;;;;;6.72;3.47;;;;;22.90;101413.00;;;;9857141;29;20286;-77
2021/08/11 17:04:11;;;;;;;3.40;2.63;;;;;22.70;101415.00;;;;9870561;29;20695;-76
2021/08/11 17:09:12;;;;;;;5.55;3.03;;;;;22.60;101414.00;;;;9871054;29;20219;-76
2021/08/11 17:14:14;;;;;;;5.78;3.00;;;;;22.50;101406.00;;;;9866158;30;20227;-76
2021/08/11 17:19:16;;;;;;;3.78;3.03;;;;;22.50;101406.00;;;;9863871;30;20287;-76
2021/08/11 17:24:18;;;;;;;4.78;3.10;;;;;22.50;101396.00;;;;9883878;29;20215;-76
2021/08/11 17:29:20;;;;;;;4.53;3.17;;;;;22.30;101398.00;;;;9901403;29;20675;-76
2021/08/11 17:34:22;;;;;;;4.45;2.88;;;;;22.20;101395.00;;;;9900618;29;20591;-76
2021/08/11 17:39:25;;;;;;;4.60;3.08;;;;;22.10;101399.00;;;;9885687;29;20231;-76
2021/08/11 17:44:27;;;;;;;5.10;3.55;;;;;22.00;101405.00;;;;9873302;29;20627;-76
2021/08/11 17:49:29;;;;;;;7.60;3.45;;;;;21.80;101403.00;;;;9849394;30;20205;-76
2021/08/11 17:54:31;;;;;;;4.05;3.13;;;;;21.70;101398.00;;;;9894233;29;20227;-76
2021/08/11 17:59:33;;;;;;;4.30;3.22;;;;;21.60;101405.00;;;;9870762;29;20204;-76
2021/08/11 18:04:34;;;;;;;4.85;2.90;;;;;21.50;101404.00;;;;9856381;29;20569;-76
2021/08/11 18:09:37;;;;;;;10.52;3.25;;;;;21.30;101408.00;;;;9903755;29;20225;-76
2021/08/11 18:14:39;;;;;;;6.43;3.25;;;;;21.30;101411.00;;;;9882260;29;20242;-76
2021/08/11 18:19:41;;;;;;;4.88;3.10;;;;;21.20;101413.00;;;;9872764;29;20211;-76
2021/08/11 18:24:58;;;;;;;6.78;3.25;;;;;21.00;101416.00;;;;9874066;29;20283;-76
2021/08/11 18:30:02;;;;;;;4.85;3.50;;;;;20.80;101422.00;;;;9871837;29;20208;-76
2021/08/11 18:35:05;;;;;;;4.07;3.10;;;;;20.50;101414.00;;;;9892781;29;20696;-76
2021/08/11 18:40:13;;;;;;;7.47;3.47;;;;;20.40;101418.00;;;;9892360;29;20615;-76
2021/08/11 18:45:15;;;;;;;5.47;4.30;;;;;20.10;101427.00;;;;9906263;29;20214;-76
2021/08/11 18:50:17;;;;;;;4.90;3.35;;;;;19.90;101423.00;;;;9891451;29;20203;-76
2021/08/11 18:55:19;;;;;;;5.15;3.40;;;;;19.70;101419.00;;;;9890631;29;20323;-76
2021/08/11 19:00:22;;;;;;;5.15;3.30;;;;;19.40;101421.00;;;;9890925;29;20212;-76
2021/08/11 19:05:24;;;;;;;7.90;3.40;;;;;19.10;101421.00;;;;9890102;29;20208;-76
2021/08/11 19:10:26;;;;;;;7.97;3.85;;;;;18.90;101416.00;;;;9874885;29;20207;-76
2021/08/11 19:15:28;;;;;;;5.50;4.30;;;;;18.70;101432.00;;;;9917437;29;20645;-76
2021/08/11 19:20:30;;;;;;;7.47;4.40;;;;;18.50;101429.00;;;;9925922;29;20203;-76
2021/08/11 19:25:32;;;;;;;9.05;5.63;;;;;18.30;101442.00;;;;9888554;29;20218;-76
2021/08/11 19:30:34;;;;;;;6.93;5.13;;;;;18.00;101440.00;;;;9889193;29;20204;-76
2021/08/11 19:35:36;;;;;;;6.88;4.57;;;;;17.90;101459.00;;;;9903712;29;20278;-76
2021/08/11 19:40:38;;;;;;;9.38;4.53;;;;;17.70;101465.00;;;;9859427;29;20207;-76
2021/08/11 19:45:40;;;;;;;10.05;5.45;;;;;17.60;101458.00;;;;9904677;29;20222;-76
2021/08/11 19:50:43;;;;;;;6.32;4.65;;;;;17.50;101471.00;;;;9888929;29;20744;-76
2021/08/11 19:55:45;;;;;;;6.28;4.68;;;;;17.40;101478.00;;;;9879094;29;20256;-76
2021/08/11 20:00:47;;;;;;;6.75;4.85;;;;;17.30;101470.00;;;;9837426;29;20266;-76
2021/08/11 20:05:49;;;;;;;7.28;5.13;;;;;17.20;101480.00;;;;9860871;29;20222;-76
2021/08/11 20:10:51;;;;;;;6.78;5.15;;;;;17.00;101488.00;;;;9904101;29;20195;-76
2021/08/11 20:15:53;;;;;;;5.40;4.90;;;;;16.90;101485.00;;;;9902231;29;20227;-76
2021/08/11 20:20:55;;;;;;;6.82;4.50;;;;;16.80;101481.00;;;;9887426;29;20272;-76
2021/08/11 20:25:57;;;;;;;7.20;5.28;;;;;16.70;101486.00;;;;9872536;29;20695;-76
2021/08/11 20:31:03;;;;;;;8.98;5.63;;;;;16.60;101494.00;;;;9902427;29;20203;-76
2021/08/11 20:36:05;;;;;;;10.77;8.90;;;;;16.60;101497.00;;;;9879657;29;20735;-75
2021/08/11 20:41:07;;;;;;;11.68;10.10;;;;;16.50;101497.00;;;;9834490;30;20211;-76
2021/08/11 20:46:09;;;;;;;13.10;9.83;;;;;16.40;101501.00;;;;9839287;29;20219;-76
2021/08/11 20:51:11;;;;;;;5.70;4.90;;;;;16.30;101504.00;;;;9903273;29;20701;-76
2021/08/11 20:56:13;;;;;;;9.10;5.03;;;;;16.20;101497.00;;;;9886414;29;20219;-76
2021/08/11 21:01:15;;;;;;;7.83;5.00;;;;;16.10;101491.00;;;;9871370;29;20270;-76
2021/08/11 21:06:17;;;;;;;6.23;4.90;;;;;16.00;101494.00;;;;9901474;29;20211;-76
2021/08/11 21:11:19;;;;;;;8.53;5.87;;;;;15.90;101490.00;;;;9901196;29;20211;-76
2021/08/11 21:16:21;;;;;;;10.70;7.00;;;;;15.80;101489.00;;;;9886003;29;20227;-76
2021/08/11 21:21:23;;;;;;;8.67;6.47;;;;;15.70;101479.00;;;;9901544;29;20837;-76
2021/08/11 21:26:25;;;;;;;8.17;5.90;;;;;15.60;101494.00;;;;9916622;29;20218;-76
2021/08/11 21:31:26;;;;;;;9.57;6.60;;;;;15.50;101491.00;;;;9922748;29;20560;-76
2021/08/11 21:36:28;;;;;;;6.73;5.47;;;;;15.40;101484.00;;;;9887432;29;20946;-76
2021/08/11 21:41:30;;;;;;;10.07;6.40;;;;;15.30;101487.00;;;;9836400;30;20215;-76
2021/08/11 21:46:32;;;;;;;9.13;6.57;;;;;15.20;101486.00;;;;9841595;30;20208;-76
2021/08/11 21:51:34;;;;;;;9.90;6.40;;;;;15.20;101494.00;;;;9844245;30;20261;-76
2021/08/11 21:56:36;;;;;;;10.10;6.00;;;;;15.20;101492.00;;;;9894719;29;20310;-76
2021/08/11 22:01:38;;;;;;;7.60;6.07;;;;;15.20;101489.00;;;;9898480;29;20688;-76
2021/08/11 22:06:40;;;;;;;8.00;6.57;;;;;15.10;101489.00;;;;9870701;29;20212;-76
2021/08/11 22:11:42;;;;;;;10.67;6.23;;;;;15.10;101494.00;;;;9886436;30;20199;-76
2021/08/11 22:16:45;;;;;;;7.73;6.53;;;;;15.00;101483.00;;;;9894697;29;20290;-76
2021/08/11 22:21:48;;;;;;;8.17;6.37;;;;;14.90;101486.00;;;;9872042;29;20257;-76
2021/08/11 22:26:51;;;;;;;9.33;6.07;;;;;14.90;101490.00;;;;9896940;29;20863;-76
2021/08/11 22:31:53;;;;;;;7.27;6.27;;;;;14.80;101485.00;;;;9898254;29;20199;-77
2021/08/11 22:36:55;;;;;;;7.57;6.33;;;;;14.80;101486.00;;;;9895119;29;20231;-76
2021/08/11 22:41:57;;;;;;;10.83;6.23;;;;;14.80;101478.00;;;;9893925;29;20208;-76
2021/08/11 22:46:59;;;;;;;7.40;5.77;;;;;14.80;101471.00;;;;9894925;29;20219;-76
2021/08/11 22:52:02;;;;;;;8.30;6.20;;;;;14.70;101468.00;;;;9879108;29;20592;-76
2021/08/11 22:57:04;;;;;;;11.73;6.53;;;;;14.70;101474.00;;;;9894685;29;20282;-76
2021/08/11 23:02:07;;;;;;;7.97;6.53;;;;;14.60;101474.00;;;;9893526;29;20257;-76
2021/08/11 23:07:10;;;;;;;8.23;5.93;;;;;14.60;101471.00;;;;9893908;29;20211;-76
2021/08/11 23:12:12;;;;;;;8.50;5.93;;;;;14.50;101471.00;;;;9894013;29;20876;-76
2021/08/11 23:17:14;;;;;;;8.20;5.33;;;;;14.50;101462.00;;;;9879359;29;20207;-76
2021/08/11 23:22:16;;;;;;;8.30;5.50;;;;;14.40;101468.00;;;;9879207;29;20802;-76
2021/08/11 23:27:18;;;;;;;5.93;5.33;;;;;14.30;101473.00;;;;9907972;29;20207;-76
2021/08/11 23:32:19;;;;;;;6.90;5.40;;;;;14.30;101464.00;;;;9908028;29;20268;-76
2021/08/11 23:37:21;;;;;;;8.00;5.27;;;;;14.30;101460.00;;;;9893045;29;20216;-76
2021/08/11 23:42:23;;;;;;;7.23;5.00;;;;;14.30;101467.00;;;;9893152;29;20219;-76
2021/08/11 23:47:26;;;;;;;10.37;6.47;;;;;14.30;101482.00;;;;9892674;29;20669;-76
2021/08/11 23:52:30;;;;;;;7.67;4.90;;;;;14.30;101473.00;;;;9892096;29;20219;-76
2021/08/11 23:57:32;;;;;;;6.27;4.80;;;;;14.30;101457.00;;;;9907150;29;20235;-76
